< < Back
Terminal Aerodrome Forecast


Current Version              Previous Versions:   1  2  3  4  5  6  7  8  9  

Terminal Aerodrome Forecast

592
FTUS44 KMOB 281700 RRA
TAFMOB
TAF
KMOB 281749Z 2818/2918 30003KT P6SM FEW025 SCT200
     FM282100 16006KT P6SM VCTS SCT050CB SCT250
     FM290200 13003KT P6SM FEW250 PROB30 2912/2918 5SM TSRA
      BKN050CB=



Latest METAR

022
SAUS80 KWBC 291000
MTRMOB
METAR KMOB 290956Z AUTO 03003KT 8SM CLR 22/22 A2997 RMK AO2 SLP147
T02220222


USA.gov is the U.S. government's official web portal to all federal, state and local government web resources and services.